sensor_id;sensor_type;location;lat;lon;timestamp;pressure;altitude;pressure_sealevel;temperature;humidity
47763;BME280;33526;42.690;23.322;2023-02-21T00:02:36;95462.69;;;4.91;65.24
47763;BME280;33526;42.690;23.322;2023-02-21T00:05:23;95444.94;;;4.89;65.53
47763;BME280;33526;42.690;23.322;2023-02-21T00:08:07;95423.63;;;4.62;65.74
47763;BME280;33526;42.690;23.322;2023-02-21T00:10:51;95415.50;;;4.51;65.94
47763;BME280;33526;42.690;23.322;2023-02-21T00:13:36;95360.13;;;4.28;66.19
47763;BME280;33526;42.690;23.322;2023-02-21T00:16:25;95287.38;;;3.80;65.82
47763;BME280;33526;42.690;23.322;2023-02-21T00:19:09;95307.75;;;3.90;64.79
47763;BME280;33526;42.690;23.322;2023-02-21T00:21:54;95376.59;;;4.35;64.50
47763;BME280;33526;42.690;23.322;2023-02-21T00:24:38;95324.38;;;4.13;64.41
47763;BME280;33526;42.690;23.322;2023-02-21T00:27:23;95457.91;;;4.95;64.52
47763;BME280;33526;42.690;23.322;2023-02-21T00:30:10;95352.22;;;4.26;64.12
47763;BME280;33526;42.690;23.322;2023-02-21T00:32:55;95298.59;;;3.69;65.36
47763;BME280;33526;42.690;23.322;2023-02-21T00:35:38;95337.59;;;4.02;65.44
47763;BME280;33526;42.690;23.322;2023-02-21T00:38:22;95341.81;;;4.10;65.23
47763;BME280;33526;42.690;23.322;2023-02-21T00:41:06;95407.91;;;4.55;65.57
47763;BME280;33526;42.690;23.322;2023-02-21T00:43:52;95421.09;;;4.71;65.57
47763;BME280;33526;42.690;23.322;2023-02-21T00:46:36;95388.41;;;4.39;65.34
47763;BME280;33526;42.690;23.322;2023-02-21T00:49:23;95369.50;;;4.34;66.16
47763;BME280;33526;42.690;23.322;2023-02-21T00:52:08;95328.31;;;4.12;65.81
47763;BME280;33526;42.690;23.322;2023-02-21T00:54:52;95320.75;;;4.16;65.61
47763;BME280;33526;42.690;23.322;2023-02-21T00:57:36;95300.28;;;4.10;65.94
47763;BME280;33526;42.690;23.322;2023-02-21T01:00:22;95244.84;;;3.70;65.78
47763;BME280;33526;42.690;23.322;2023-02-21T01:03:07;95274.31;;;3.80;65.80
47763;BME280;33526;42.690;23.322;2023-02-21T01:05:53;95275.03;;;3.85;66.19
47763;BME280;33526;42.690;23.322;2023-02-21T01:08:44;95360.28;;;4.64;66.22
47763;BME280;33526;42.690;23.322;2023-02-21T01:11:29;95289.09;;;4.17;66.23
47763;BME280;33526;42.690;23.322;2023-02-21T01:14:13;95293.81;;;4.20;65.72
47763;BME280;33526;42.690;23.322;2023-02-21T01:16:57;95364.78;;;4.78;65.92
47763;BME280;33526;42.690;23.322;2023-02-21T01:19:42;95316.66;;;4.48;65.39
47763;BME280;33526;42.690;23.322;2023-02-21T01:22:28;95361.13;;;4.85;65.90
47763;BME280;33526;42.690;23.322;2023-02-21T01:25:12;95253.59;;;4.12;65.42
47763;BME280;33526;42.690;23.322;2023-02-21T01:27:59;95248.88;;;4.13;65.88
47763;BME280;33526;42.690;23.322;2023-02-21T01:30:43;95284.19;;;4.29;65.86
47763;BME280;33526;42.690;23.322;2023-02-21T01:33:27;95306.34;;;4.29;65.38
47763;BME280;33526;42.690;23.322;2023-02-21T01:36:11;95375.22;;;4.70;64.77
47763;BME280;33526;42.690;23.322;2023-02-21T01:38:55;95368.75;;;4.77;64.64
47763;BME280;33526;42.690;23.322;2023-02-21T01:41:40;95362.91;;;4.71;64.49
47763;BME280;33526;42.690;23.322;2023-02-21T01:44:45;95345.44;;;4.54;64.45
47763;BME280;33526;42.690;23.322;2023-02-21T01:47:30;95361.09;;;4.65;64.76
47763;BME280;33526;42.690;23.322;2023-02-21T01:53:10;95340.41;;;4.69;64.54
47763;BME280;33526;42.690;23.322;2023-02-21T01:55:56;95351.28;;;4.80;64.34
47763;BME280;33526;42.690;23.322;2023-02-21T01:58:44;95345.75;;;4.80;64.15
47763;BME280;33526;42.690;23.322;2023-02-21T02:01:42;95306.88;;;4.64;64.58
47763;BME280;33526;42.690;23.322;2023-02-21T02:04:28;95326.22;;;4.87;63.93
47763;BME280;33526;42.690;23.322;2023-02-21T02:07:13;95330.56;;;4.88;64.72
47763;BME280;33526;42.690;23.322;2023-02-21T02:09:57;95330.56;;;4.88;64.13
47763;BME280;33526;42.690;23.322;2023-02-21T02:29:24;95323.88;;;5.06;65.25
47763;BME280;33526;42.690;23.322;2023-02-21T02:48:28;95299.16;;;4.75;63.84
47763;BME280;33526;42.690;23.322;2023-02-21T02:50:56;95274.19;;;4.55;64.03
47763;BME280;33526;42.690;23.322;2023-02-21T02:53:28;95276.41;;;4.64;64.25
47763;BME280;33526;42.690;23.322;2023-02-21T02:55:59;95284.03;;;4.59;64.56
47763;BME280;33526;42.690;23.322;2023-02-21T02:58:29;95229.66;;;4.26;64.29
47763;BME280;33526;42.690;23.322;2023-02-21T03:06:44;95206.06;;;4.17;64.15
47763;BME280;33526;42.690;23.322;2023-02-21T03:11:50;95312.22;;;4.94;64.45
47763;BME280;33526;42.690;23.322;2023-02-21T03:14:23;95190.81;;;4.09;63.97
47763;BME280;33526;42.690;23.322;2023-02-21T03:17:00;95206.69;;;4.29;64.11
47763;BME280;33526;42.690;23.322;2023-02-21T03:19:32;95137.13;;;3.83;64.08
47763;BME280;33526;42.690;23.322;2023-02-21T03:22:13;95309.88;;;4.93;64.56
47763;BME280;33526;42.690;23.322;2023-02-21T03:24:42;95202.69;;;4.30;64.84
47763;BME280;33526;42.690;23.322;2023-02-21T03:27:09;95187.06;;;4.19;64.54
47763;BME280;33526;42.690;23.322;2023-02-21T03:29:39;95213.06;;;4.26;64.86
47763;BME280;33526;42.690;23.322;2023-02-21T03:32:19;95152.00;;;3.93;65.25
47763;BME280;33526;42.690;23.322;2023-02-21T03:34:48;95139.69;;;3.74;64.88
47763;BME280;33526;42.690;23.322;2023-02-21T03:37:30;95288.78;;;4.79;65.24
47763;BME280;33526;42.690;23.322;2023-02-21T03:39:57;95284.59;;;4.71;65.03
47763;BME280;33526;42.690;23.322;2023-02-21T03:42:23;95112.34;;;3.56;65.62
47763;BME280;33526;42.690;23.322;2023-02-21T03:44:49;95168.38;;;3.83;65.60
47763;BME280;33526;42.690;23.322;2023-02-21T03:47:15;95123.53;;;3.49;65.64
47763;BME280;33526;42.690;23.322;2023-02-21T03:49:41;95292.97;;;4.67;65.99
47763;BME280;33526;42.690;23.322;2023-02-21T03:52:10;95197.81;;;3.94;65.38
47763;BME280;33526;42.690;23.322;2023-02-21T03:54:38;95198.78;;;3.83;65.57
47763;BME280;33526;42.690;23.322;2023-02-21T03:57:04;95169.50;;;3.62;65.65
47763;BME280;33526;42.690;23.322;2023-02-21T03:59:30;95193.69;;;3.82;65.79
47763;BME280;33526;42.690;23.322;2023-02-21T04:01:56;95142.09;;;3.48;65.98
47763;BME280;33526;42.690;23.322;2023-02-21T04:04:22;95244.06;;;4.17;65.70
47763;BME280;33526;42.690;23.322;2023-02-21T04:06:49;95319.16;;;4.63;66.19
47763;BME280;33526;42.690;23.322;2023-02-21T04:09:14;95322.00;;;4.59;66.20
47763;BME280;33526;42.690;23.322;2023-02-21T04:11:45;95284.19;;;4.29;66.57
47763;BME280;33526;42.690;23.322;2023-02-21T04:14:11;95152.69;;;3.30;66.93
47763;BME280;33526;42.690;23.322;2023-02-21T04:16:38;95183.56;;;3.48;66.52
47763;BME280;33526;42.690;23.322;2023-02-21T04:19:03;95265.31;;;4.00;66.73
47763;BME280;33526;42.690;23.322;2023-02-21T04:21:30;95198.59;;;3.47;67.16
47763;BME280;33526;42.690;23.322;2023-02-21T04:23:57;95149.22;;;3.22;67.31
47763;BME280;33526;42.690;23.322;2023-02-21T04:26:24;95293.50;;;4.15;67.33
47763;BME280;33526;42.690;23.322;2023-02-21T04:28:50;95264.06;;;3.77;67.67
47763;BME280;33526;42.690;23.322;2023-02-21T04:31:18;95338.81;;;4.25;67.94
47763;BME280;33526;42.690;23.322;2023-02-21T04:33:44;95248.44;;;3.67;67.93
47763;BME280;33526;42.690;23.322;2023-02-21T04:36:09;95155.38;;;3.06;67.05
47763;BME280;33526;42.690;23.322;2023-02-21T04:38:35;95197.31;;;3.28;67.61
47763;BME280;33526;42.690;23.322;2023-02-21T04:41:03;95194.44;;;3.35;67.68
47763;BME280;33526;42.690;23.322;2023-02-21T04:43:29;95355.91;;;4.43;67.01
47763;BME280;33526;42.690;23.322;2023-02-21T04:45:59;95174.34;;;3.31;66.87
47763;BME280;33526;42.690;23.322;2023-02-21T04:48:26;95157.72;;;3.08;67.72
47763;BME280;33526;42.690;23.322;2023-02-21T04:50:52;95270.72;;;3.83;67.26
47763;BME280;33526;42.690;23.322;2023-02-21T04:53:18;95206.38;;;3.29;67.89
47763;BME280;33526;42.690;23.322;2023-02-21T04:55:44;95275.13;;;3.77;67.99
47763;BME280;33526;42.690;23.322;2023-02-21T04:58:10;95274.72;;;3.79;68.01
47763;BME280;33526;42.690;23.322;2023-02-21T05:00:35;95328.78;;;4.11;68.46
47763;BME280;33526;42.690;23.322;2023-02-21T05:03:01;95106.63;;;2.68;68.43
47763;BME280;33526;42.690;23.322;2023-02-21T05:05:28;95164.53;;;3.03;68.08
47763;BME280;33526;42.690;23.322;2023-02-21T05:07:53;95168.06;;;3.03;68.61
47763;BME280;33526;42.690;23.322;2023-02-21T05:10:19;95213.78;;;3.35;68.31
47763;BME280;33526;42.690;23.322;2023-02-21T05:12:45;95186.25;;;3.28;68.63
47763;BME280;33526;42.690;23.322;2023-02-21T05:15:17;95196.34;;;3.38;68.54
47763;BME280;33526;42.690;23.322;2023-02-21T05:17:48;95210.69;;;3.57;67.98
47763;BME280;33526;42.690;23.322;2023-02-21T05:20:14;95213.28;;;3.68;67.68
47763;BME280;33526;42.690;23.322;2023-02-21T05:22:44;95278.03;;;4.17;67.69
47763;BME280;33526;42.690;23.322;2023-02-21T05:25:20;95249.06;;;4.02;67.56
47763;BME280;33526;42.690;23.322;2023-02-21T05:27:51;95204.50;;;3.73;67.56
47763;BME280;33526;42.690;23.322;2023-02-21T05:30:20;95109.81;;;3.18;66.82
47763;BME280;33526;42.690;23.322;2023-02-21T05:32:47;95144.22;;;3.40;66.94
47763;BME280;33526;42.690;23.322;2023-02-21T05:35:16;95141.81;;;3.42;66.96
47763;BME280;33526;42.690;23.322;2023-02-21T05:37:50;95275.63;;;4.19;66.87
47763;BME280;33526;42.690;23.322;2023-02-21T05:40:16;95316.50;;;4.55;67.18
47763;BME280;33526;42.690;23.322;2023-02-21T05:42:42;95154.41;;;3.43;67.26
47763;BME280;33526;42.690;23.322;2023-02-21T05:45:08;95235.56;;;4.04;66.92
47763;BME280;33526;42.690;23.322;2023-02-21T05:47:34;95279.66;;;4.15;66.99
47763;BME280;33526;42.690;23.322;2023-02-21T05:50:01;95175.63;;;3.50;67.19
47763;BME280;33526;42.690;23.322;2023-02-21T05:52:26;95254.34;;;4.16;67.13
47763;BME280;33526;42.690;23.322;2023-02-21T05:54:52;95228.34;;;4.10;66.60
47763;BME280;33526;42.690;23.322;2023-02-21T05:57:19;95282.97;;;4.30;66.50
47763;BME280;33526;42.690;23.322;2023-02-21T05:59:44;95336.03;;;4.72;66.40
47763;BME280;33526;42.690;23.322;2023-02-21T06:02:13;95276.94;;;4.35;66.63
47763;BME280;33526;42.690;23.322;2023-02-21T06:04:42;95268.22;;;4.36;65.97
47763;BME280;33526;42.690;23.322;2023-02-21T06:07:09;95181.75;;;3.85;65.81
47763;BME280;33526;42.690;23.322;2023-02-21T06:09:37;95171.97;;;3.80;65.20
47763;BME280;33526;42.690;23.322;2023-02-21T06:12:06;95144.56;;;3.66;65.45
47763;BME280;33526;42.690;23.322;2023-02-21T06:14:32;95270.53;;;4.62;64.89
47763;BME280;33526;42.690;23.322;2023-02-21T06:17:03;95342.78;;;5.11;63.98
47763;BME280;33526;42.690;23.322;2023-02-21T06:19:28;95274.84;;;4.63;63.08
47763;BME280;33526;42.690;23.322;2023-02-21T06:21:55;95196.59;;;4.18;63.03
47763;BME280;33526;42.690;23.322;2023-02-21T06:24:21;95255.91;;;4.61;63.13
47763;BME280;33526;42.690;23.322;2023-02-21T06:26:49;95267.47;;;4.76;62.64
47763;BME280;33526;42.690;23.322;2023-02-21T06:29:15;95202.69;;;4.30;62.36
47763;BME280;33526;42.690;23.322;2023-02-21T06:31:49;95188.28;;;4.38;61.91
47763;BME280;33526;42.690;23.322;2023-02-21T06:34:37;95295.25;;;5.12;61.24
47763;BME280;33526;42.690;23.322;2023-02-21T06:37:20;95181.28;;;4.54;61.52
47763;BME280;33526;42.690;23.322;2023-02-21T06:40:14;95183.16;;;4.57;60.45
47763;BME280;33526;42.690;23.322;2023-02-21T06:43:15;95164.34;;;4.48;60.55
47763;BME280;33526;42.690;23.322;2023-02-21T06:45:42;95353.53;;;5.85;60.39
47763;BME280;33526;42.690;23.322;2023-02-21T06:48:14;95288.84;;;5.52;60.43
47763;BME280;33526;42.690;23.322;2023-02-21T06:51:08;95211.50;;;5.21;60.17
47763;BME280;33526;42.690;23.322;2023-02-21T07:00:02;95356.63;;;6.40;59.01
47763;BME280;33526;42.690;23.322;2023-02-21T07:02:32;95213.97;;;5.35;59.06
47763;BME280;33526;42.690;23.322;2023-02-21T07:05:01;95356.00;;;6.32;59.29
47763;BME280;33526;42.690;23.322;2023-02-21T07:07:28;95276.75;;;5.95;59.09
47763;BME280;33526;42.690;23.322;2023-02-21T07:10:38;95190.03;;;5.42;58.73
47763;BME280;33526;42.690;23.322;2023-02-21T07:13:45;95358.34;;;6.67;58.70
47763;BME280;33526;42.690;23.322;2023-02-21T07:17:02;95355.97;;;6.82;58.70
47763;BME280;33526;42.690;23.322;2023-02-21T07:19:50;95257.84;;;6.23;57.70
47763;BME280;33526;42.690;23.322;2023-02-21T07:22:21;95239.75;;;6.18;57.79
47763;BME280;33526;42.690;23.322;2023-02-21T07:24:52;95193.69;;;6.04;57.49
47763;BME280;33526;42.690;23.322;2023-02-21T07:27:18;95245.84;;;6.42;57.12
47763;BME280;33526;42.690;23.322;2023-02-21T07:29:49;95337.88;;;7.19;57.31
47763;BME280;33526;42.690;23.322;2023-02-21T07:32:18;95230.50;;;6.67;57.10
47763;BME280;33526;42.690;23.322;2023-02-21T07:34:44;95277.09;;;7.05;56.55
47763;BME280;33526;42.690;23.322;2023-02-21T07:37:10;95235.38;;;6.92;56.46
47763;BME280;33526;42.690;23.322;2023-02-21T07:39:35;95250.66;;;7.13;55.96
47763;BME280;33526;42.690;23.322;2023-02-21T07:42:03;95324.09;;;7.71;55.93
47763;BME280;33526;42.690;23.322;2023-02-21T07:44:32;95286.44;;;7.53;55.50
47763;BME280;33526;42.690;23.322;2023-02-21T07:46:59;95185.09;;;6.86;55.66
47763;BME280;33526;42.690;23.322;2023-02-21T07:49:25;95174.53;;;6.81;55.30
47763;BME280;33526;42.690;23.322;2023-02-21T07:51:51;95164.84;;;6.86;55.28
47763;BME280;33526;42.690;23.322;2023-02-21T07:54:18;95270.72;;;7.59;55.36
47763;BME280;33526;42.690;23.322;2023-02-21T07:56:47;95304.59;;;7.96;55.18
47763;BME280;33526;42.690;23.322;2023-02-21T07:59:14;95313.72;;;8.10;55.39
47763;BME280;33526;42.690;23.322;2023-02-21T08:01:40;95313.59;;;8.13;54.87
47763;BME280;33526;42.690;23.322;2023-02-21T08:04:06;95302.34;;;8.17;55.32
47763;BME280;33526;42.690;23.322;2023-02-21T08:06:34;95287.56;;;8.07;54.77
47763;BME280;33526;42.690;23.322;2023-02-21T08:09:01;95285.53;;;8.08;54.93
47763;BME280;33526;42.690;23.322;2023-02-21T08:11:48;95303.00;;;8.21;54.71
47763;BME280;33526;42.690;23.322;2023-02-21T08:14:14;95148.56;;;7.26;54.96
47763;BME280;33526;42.690;23.322;2023-02-21T08:16:39;95208.06;;;7.68;55.46
47763;BME280;33526;42.690;23.322;2023-02-21T08:19:04;95277.59;;;8.19;54.61
47763;BME280;33526;42.690;23.322;2023-02-21T08:21:30;95301.00;;;8.34;56.84
47763;BME280;33526;42.690;23.322;2023-02-21T08:23:55;95303.09;;;8.56;55.42
47763;BME280;33526;42.690;23.322;2023-02-21T08:26:21;95302.78;;;8.54;54.27
47763;BME280;33526;42.690;23.322;2023-02-21T08:28:47;95254.75;;;8.24;54.58
47763;BME280;33526;42.690;23.322;2023-02-21T08:31:21;95269.44;;;8.50;53.96
47763;BME280;33526;42.690;23.322;2023-02-21T08:33:46;95245.38;;;8.44;54.20
47763;BME280;33526;42.690;23.322;2023-02-21T08:36:12;95288.94;;;8.85;53.56
47763;BME280;33526;42.690;23.322;2023-02-21T08:38:37;95195.25;;;8.31;54.18
47763;BME280;33526;42.690;23.322;2023-02-21T08:41:04;95215.13;;;8.55;53.25
47763;BME280;33526;42.690;23.322;2023-02-21T08:43:30;95177.53;;;8.37;52.25
47763;BME280;33526;42.690;23.322;2023-02-21T08:45:56;95246.41;;;8.94;53.29
47763;BME280;33526;42.690;23.322;2023-02-21T08:48:23;95151.41;;;8.44;52.47
47763;BME280;33526;42.690;23.322;2023-02-21T08:50:49;95249.78;;;9.11;51.97
47763;BME280;33526;42.690;23.322;2023-02-21T08:53:16;95237.63;;;9.27;53.01
47763;BME280;33526;42.690;23.322;2023-02-21T08:55:42;95206.53;;;9.06;52.58
47763;BME280;33526;42.690;23.322;2023-02-21T08:58:09;95189.97;;;9.12;52.28
47763;BME280;33526;42.690;23.322;2023-02-21T09:00:36;95221.78;;;9.24;51.25
47763;BME280;33526;42.690;23.322;2023-02-21T09:03:01;95260.13;;;9.54;52.71
47763;BME280;33526;42.690;23.322;2023-02-21T09:05:29;95197.47;;;9.24;51.55
47763;BME280;33526;42.690;23.322;2023-02-21T09:07:56;95201.41;;;9.36;50.99
47763;BME280;33526;42.690;23.322;2023-02-21T09:10:30;95249.31;;;9.66;50.88
47763;BME280;33526;42.690;23.322;2023-02-21T09:12:58;95232.34;;;9.51;51.32
47763;BME280;33526;42.690;23.322;2023-02-21T09:15:24;95222.22;;;9.44;51.52
47763;BME280;33526;42.690;23.322;2023-02-21T09:17:50;95210.97;;;9.57;51.15
47763;BME280;33526;42.690;23.322;2023-02-21T09:20:21;95170.84;;;9.64;49.88
47763;BME280;33526;42.690;23.322;2023-02-21T09:22:47;95177.69;;;9.81;50.19
47763;BME280;33526;42.690;23.322;2023-02-21T09:25:15;95168.72;;;9.86;50.82
47763;BME280;33526;42.690;23.322;2023-02-21T09:27:41;95168.47;;;10.12;49.20
47763;BME280;33526;42.690;23.322;2023-02-21T09:30:19;95152.63;;;10.18;48.83
47763;BME280;33526;42.690;23.322;2023-02-21T09:32:49;95194.63;;;10.64;47.90
47763;BME280;33526;42.690;23.322;2023-02-21T09:35:16;95249.13;;;11.06;47.52
47763;BME280;33526;42.690;23.322;2023-02-21T09:37:44;95101.88;;;10.29;47.76
47763;BME280;33526;42.690;23.322;2023-02-21T09:40:42;95248.28;;;11.42;46.53
47763;BME280;33526;42.690;23.322;2023-02-21T09:43:20;95098.31;;;10.47;46.13
47763;BME280;33526;42.690;23.322;2023-02-21T09:45:53;95104.19;;;10.58;46.16
47763;BME280;33526;42.690;23.322;2023-02-21T09:48:24;95102.34;;;10.64;46.18
47763;BME280;33526;42.690;23.322;2023-02-21T09:50:57;95131.13;;;11.17;46.80
47763;BME280;33526;42.690;23.322;2023-02-21T09:53:34;95229.53;;;12.10;45.07
47763;BME280;33526;42.690;23.322;2023-02-21T09:58:51;95092.75;;;11.75;43.02
47763;BME280;33526;42.690;23.322;2023-02-21T10:06:50;95123.72;;;12.43;41.21
47763;BME280;33526;42.690;23.322;2023-02-21T10:12:15;95197.63;;;12.94;42.76
47763;BME280;33526;42.690;23.322;2023-02-21T10:17:45;95146.53;;;12.75;42.27
47763;BME280;33526;42.690;23.322;2023-02-21T10:20:21;95074.03;;;12.44;42.27
47763;BME280;33526;42.690;23.322;2023-02-21T10:22:51;95078.44;;;12.75;41.21
47763;BME280;33526;42.690;23.322;2023-02-21T10:25:27;95118.28;;;13.24;39.40
47763;BME280;33526;42.690;23.322;2023-02-21T10:27:54;95118.84;;;13.43;39.30
47763;BME280;33526;42.690;23.322;2023-02-21T10:30:36;95107.72;;;13.84;37.98
47763;BME280;33526;42.690;23.322;2023-02-21T10:33:04;95040.75;;;13.62;34.64
47763;BME280;33526;42.690;23.322;2023-02-21T10:35:34;95167.22;;;14.79;32.88
47763;BME280;33526;42.690;23.322;2023-02-21T10:38:02;95072.28;;;14.53;32.15
47763;BME280;33526;42.690;23.322;2023-02-21T10:43:30;95111.91;;;15.28;30.59
47763;BME280;33526;42.690;23.322;2023-02-21T10:48:33;95110.53;;;15.50;30.03
47763;BME280;33526;42.690;23.322;2023-02-21T10:53:31;95020.00;;;15.25;29.21
47763;BME280;33526;42.690;23.322;2023-02-21T10:56:09;95064.81;;;15.66;28.79
47763;BME280;33526;42.690;23.322;2023-02-21T10:59:02;94997.44;;;15.25;29.17
47763;BME280;33526;42.690;23.322;2023-02-21T11:01:43;95036.75;;;15.46;28.82
47763;BME280;33526;42.690;23.322;2023-02-21T11:04:22;95114.34;;;15.79;29.77
47763;BME280;33526;42.690;23.322;2023-02-21T11:09:33;95112.22;;;16.05;29.24
47763;BME280;33526;42.690;23.322;2023-02-21T11:14:29;94981.88;;;15.36;29.31
47763;BME280;33526;42.690;23.322;2023-02-21T11:25:15;95040.00;;;16.19;28.50
47763;BME280;33526;42.690;23.322;2023-02-21T11:27:57;95071.16;;;16.70;28.17
47763;BME280;33526;42.690;23.322;2023-02-21T11:30:23;95027.22;;;16.35;28.37
47763;BME280;33526;42.690;23.322;2023-02-21T11:32:55;95024.91;;;16.39;28.87
47763;BME280;33526;42.690;23.322;2023-02-21T11:35:25;95067.63;;;16.87;28.15
47763;BME280;33526;42.690;23.322;2023-02-21T11:37:55;95022.38;;;16.53;28.43
47763;BME280;33526;42.690;23.322;2023-02-21T11:42:47;94961.78;;;16.31;28.34
47763;BME280;33526;42.690;23.322;2023-02-21T11:45:19;95017.78;;;16.50;28.46
47763;BME280;33526;42.690;23.322;2023-02-21T11:48:13;95032.19;;;16.80;28.63
47763;BME280;33526;42.690;23.322;2023-02-21T11:50:47;95041.19;;;16.78;28.88
47763;BME280;33526;42.690;23.322;2023-02-21T11:53:22;94897.06;;;15.77;29.16
47763;BME280;33526;42.690;23.322;2023-02-21T11:56:29;94895.34;;;16.02;28.80
47763;BME280;33526;42.690;23.322;2023-02-21T12:24:41;94988.59;;;16.98;28.99
47763;BME280;33526;42.690;23.322;2023-02-21T12:36:13;94942.13;;;16.76;29.29
47763;BME280;33526;42.690;23.322;2023-02-21T12:39:09;94969.09;;;17.00;29.27
47763;BME280;33526;42.690;23.322;2023-02-21T12:47:18;94869.00;;;16.73;28.94
47763;BME280;33526;42.690;23.322;2023-02-21T12:50:17;94964.16;;;17.40;29.09
47763;BME280;33526;42.690;23.322;2023-02-21T12:53:18;94959.84;;;17.16;29.29
47763;BME280;33526;42.690;23.322;2023-02-21T12:55:47;94889.25;;;16.66;29.32
47763;BME280;33526;42.690;23.322;2023-02-21T12:58:29;94930.31;;;17.06;29.56
47763;BME280;33526;42.690;23.322;2023-02-21T13:01:19;94951.81;;;17.37;29.42
47763;BME280;33526;42.690;23.322;2023-02-21T13:06:57;94871.03;;;16.95;29.39
47763;BME280;33526;42.690;23.322;2023-02-21T13:09:47;94842.28;;;16.91;28.78
47763;BME280;33526;42.690;23.322;2023-02-21T13:12:18;94819.22;;;16.64;28.82
47763;BME280;33526;42.690;23.322;2023-02-21T13:14:53;94832.28;;;16.90;28.65
47763;BME280;33526;42.690;23.322;2023-02-21T13:17:22;94840.72;;;17.01;28.39
47763;BME280;33526;42.690;23.322;2023-02-21T13:26:54;94929.38;;;17.68;28.76
47763;BME280;33526;42.690;23.322;2023-02-21T13:28:59;94892.72;;;17.45;28.42
47763;BME280;33526;42.690;23.322;2023-02-21T13:31:33;94896.03;;;17.49;28.72
47763;BME280;33526;42.690;23.322;2023-02-21T13:34:08;94936.53;;;17.80;28.30
47763;BME280;33526;42.690;23.322;2023-02-21T13:36:42;94925.47;;;17.88;27.94
47763;BME280;33526;42.690;23.322;2023-02-21T13:41:38;94799.94;;;16.79;28.10
47763;BME280;33526;42.690;23.322;2023-02-21T13:44:09;94845.03;;;17.19;28.03
47763;BME280;33526;42.690;23.322;2023-02-21T14:02:56;94899.97;;;17.24;28.56
47763;BME280;33526;42.690;23.322;2023-02-21T14:05:24;94784.84;;;16.49;28.69
47763;BME280;33526;42.690;23.322;2023-02-21T14:08:07;94809.97;;;16.58;28.88
47763;BME280;33526;42.690;23.322;2023-02-21T14:10:53;94845.13;;;16.91;28.94
47763;BME280;33526;42.690;23.322;2023-02-21T14:19:05;94763.84;;;16.27;28.53
47763;BME280;33526;42.690;23.322;2023-02-21T14:21:44;94851.78;;;16.88;28.43
47763;BME280;33526;42.690;23.322;2023-02-21T14:24:25;94756.69;;;16.26;28.04
47763;BME280;33526;42.690;23.322;2023-02-21T14:37:12;94842.53;;;16.76;27.47
47763;BME280;33526;42.690;23.322;2023-02-21T14:39:42;94809.47;;;16.59;27.74
47763;BME280;33526;42.690;23.322;2023-02-21T14:42:22;94786.91;;;16.31;27.27
47763;BME280;33526;42.690;23.322;2023-02-21T14:53:12;94830.25;;;16.45;27.45
47763;BME280;33526;42.690;23.322;2023-02-21T14:58:34;94844.34;;;16.39;27.78
47763;BME280;33526;42.690;23.322;2023-02-21T15:03:49;94787.44;;;16.01;28.11
47763;BME280;33526;42.690;23.322;2023-02-21T15:06:20;94734.56;;;15.57;28.34
47763;BME280;33526;42.690;23.322;2023-02-21T15:08:51;94869.22;;;16.58;28.36
47763;BME280;33526;42.690;23.322;2023-02-21T15:11:29;94793.06;;;15.90;28.53
47763;BME280;33526;42.690;23.322;2023-02-21T15:14:19;94744.06;;;15.59;28.54
47763;BME280;33526;42.690;23.322;2023-02-21T15:16:57;94839.25;;;16.21;28.33
47763;BME280;33526;42.690;23.322;2023-02-21T15:19:33;94786.66;;;15.78;28.66
47763;BME280;33526;42.690;23.322;2023-02-21T15:27:59;94829.97;;;16.03;28.63
47763;BME280;33526;42.690;23.322;2023-02-21T15:30:39;94829.47;;;15.99;28.67
47763;BME280;33526;42.690;23.322;2023-02-21T15:33:06;94887.19;;;16.15;28.78
47763;BME280;33526;42.690;23.322;2023-02-21T15:35:38;94840.69;;;15.77;28.99
47763;BME280;33526;42.690;23.322;2023-02-21T15:38:14;94793.47;;;15.38;28.90
47763;BME280;33526;42.690;23.322;2023-02-21T15:40:41;94750.56;;;15.00;29.21
47763;BME280;33526;42.690;23.322;2023-02-21T15:43:07;94808.78;;;15.25;29.22
47763;BME280;33526;42.690;23.322;2023-02-21T15:45:47;94862.69;;;15.61;29.21
47763;BME280;33526;42.690;23.322;2023-02-21T15:48:14;94878.84;;;15.66;29.43
47763;BME280;33526;42.690;23.322;2023-02-21T15:50:51;94759.91;;;14.74;29.77
47763;BME280;33526;42.690;23.322;2023-02-21T19:42:14;95010.28;;;11.27;37.55
47763;BME280;33526;42.690;23.322;2023-02-21T20:00:19;94939.38;;;10.12;41.34
47763;BME280;33526;42.690;23.322;2023-02-21T20:02:51;94932.56;;;10.04;41.52
47763;BME280;33526;42.690;23.322;2023-02-21T20:05:24;94904.38;;;9.74;41.79
47763;BME280;33526;42.690;23.322;2023-02-21T20:07:49;94879.75;;;9.54;41.33
47763;BME280;33526;42.690;23.322;2023-02-21T20:10:18;94949.03;;;9.92;41.81
47763;BME280;33526;42.690;23.322;2023-02-21T20:12:52;95009.66;;;10.29;41.90
47763;BME280;33526;42.690;23.322;2023-02-21T20:45:01;94897.25;;;9.17;43.16
47763;BME280;33526;42.690;23.322;2023-02-21T20:51:00;94877.44;;;8.97;43.92
47763;BME280;33526;42.690;23.322;2023-02-21T20:53:59;94954.31;;;9.44;43.85
47763;BME280;33526;42.690;23.322;2023-02-21T21:08:18;94860.19;;;8.89;44.55
47763;BME280;33526;42.690;23.322;2023-02-21T21:11:04;94909.03;;;9.12;44.43
47763;BME280;33526;42.690;23.322;2023-02-21T21:16:50;94964.72;;;9.44;44.57
47763;BME280;33526;42.690;23.322;2023-02-21T21:30:51;94903.16;;;9.29;44.66
47763;BME280;33526;42.690;23.322;2023-02-21T21:56:25;94984.38;;;10.23;43.95
47763;BME280;33526;42.690;23.322;2023-02-21T21:59:24;94884.84;;;9.65;43.91
47763;BME280;33526;42.690;23.322;2023-02-21T22:07:21;94858.81;;;9.49;43.61
47763;BME280;33526;42.690;23.322;2023-02-21T22:10:24;94834.34;;;9.35;43.64
47763;BME280;33526;42.690;23.322;2023-02-21T22:24:45;94858.50;;;9.29;45.18
47763;BME280;33526;42.690;23.322;2023-02-21T22:28:04;94997.41;;;10.17;45.31
47763;BME280;33526;42.690;23.322;2023-02-21T22:31:32;94918.06;;;9.35;45.73
47763;BME280;33526;42.690;23.322;2023-02-21T22:34:18;94864.00;;;8.55;46.41